Delawanna, New Jersey
Current Conditions -  °F | °C
As of 2:51 PM on Sunday 21 Dec 2014 (Local Time) from KTEB Reporting Station
Overcast Overcast  
Wind Chill: 30°   Ceiling: 2200
Heat Index: 36°   Visibility: 10mi
Dew Point: 26°   Wind: 7mph
Humidity: 67%   Direction: 330°NNW
Pressure: 30.28"   Gusts: NA
Location:  40.8318°N, 74.1362°W
Report Text: KTEB 211951Z 33006KT 10SM BKN022 OVC034 02/M03 A3028 RMK AO2 SLP255 T00221033
Loading
Personal Weather Stations






























Interactive Weather Map New forecast layout! Learn more

10-Day Weather Forecast

Advertisements
Track Severe Weather on mobile